sensor_id;sensor_type;location;lat;lon;timestamp;P1;durP1;ratioP1;P2;durP2;ratioP2
68250;SDS011;55066;51.560;4.642;2023-10-31T00:00:15;4.40;;;1.05;;
68250;SDS011;55066;51.560;4.642;2023-10-31T00:02:41;6.57;;;1.07;;
68250;SDS011;55066;51.560;4.642;2023-10-31T00:05:06;4.43;;;1.23;;
68250;SDS011;55066;51.560;4.642;2023-10-31T00:07:31;7.07;;;1.30;;
68250;SDS011;55066;51.560;4.642;2023-10-31T00:09:57;5.47;;;1.50;;
68250;SDS011;55066;51.560;4.642;2023-10-31T00:12:22;3.87;;;1.67;;
68250;SDS011;55066;51.560;4.642;2023-10-31T00:14:48;6.28;;;1.45;;
68250;SDS011;55066;51.560;4.642;2023-10-31T00:17:13;4.43;;;1.70;;
68250;SDS011;55066;51.560;4.642;2023-10-31T00:19:39;8.17;;;2.27;;
68250;SDS011;55066;51.560;4.642;2023-10-31T00:22:04;8.10;;;3.53;;
68250;SDS011;55066;51.560;4.642;2023-10-31T00:24:30;13.07;;;4.10;;
68250;SDS011;55066;51.560;4.642;2023-10-31T00:26:57;8.88;;;2.70;;
68250;SDS011;55066;51.560;4.642;2023-10-31T00:29:23;8.27;;;3.03;;
68250;SDS011;55066;51.560;4.642;2023-10-31T00:31:48;11.02;;;3.13;;
68250;SDS011;55066;51.560;4.642;2023-10-31T00:34:13;9.97;;;3.40;;
68250;SDS011;55066;51.560;4.642;2023-10-31T00:36:39;10.20;;;3.97;;
68250;SDS011;55066;51.560;4.642;2023-10-31T00:39:04;9.07;;;3.83;;
68250;SDS011;55066;51.560;4.642;2023-10-31T00:41:30;13.27;;;4.43;;
68250;SDS011;55066;51.560;4.642;2023-10-31T00:43:56;11.37;;;4.47;;
68250;SDS011;55066;51.560;4.642;2023-10-31T00:46:21;16.30;;;5.40;;
68250;SDS011;55066;51.560;4.642;2023-10-31T00:48:47;16.67;;;6.30;;
68250;SDS011;55066;51.560;4.642;2023-10-31T00:51:13;15.83;;;6.13;;
68250;SDS011;55066;51.560;4.642;2023-10-31T00:53:38;17.17;;;6.95;;
68250;SDS011;55066;51.560;4.642;2023-10-31T00:56:04;15.47;;;6.97;;
68250;SDS011;55066;51.560;4.642;2023-10-31T00:58:30;17.25;;;7.88;;
68250;SDS011;55066;51.560;4.642;2023-10-31T01:00:55;20.13;;;8.87;;
68250;SDS011;55066;51.560;4.642;2023-10-31T01:03:20;25.20;;;8.97;;
68250;SDS011;55066;51.560;4.642;2023-10-31T01:05:46;18.77;;;8.60;;
68250;SDS011;55066;51.560;4.642;2023-10-31T01:08:11;20.52;;;8.75;;
68250;SDS011;55066;51.560;4.642;2023-10-31T01:10:37;20.08;;;8.90;;
68250;SDS011;55066;51.560;4.642;2023-10-31T01:13:02;19.00;;;9.27;;
68250;SDS011;55066;51.560;4.642;2023-10-31T01:15:28;22.40;;;9.53;;
68250;SDS011;55066;51.560;4.642;2023-10-31T01:17:53;25.30;;;10.60;;
68250;SDS011;55066;51.560;4.642;2023-10-31T01:20:18;24.17;;;10.87;;
68250;SDS011;55066;51.560;4.642;2023-10-31T01:22:44;21.75;;;9.25;;
68250;SDS011;55066;51.560;4.642;2023-10-31T01:25:10;22.80;;;9.73;;
68250;SDS011;55066;51.560;4.642;2023-10-31T01:27:35;29.60;;;10.27;;
68250;SDS011;55066;51.560;4.642;2023-10-31T01:30:01;30.10;;;12.30;;
68250;SDS011;55066;51.560;4.642;2023-10-31T01:32:27;28.58;;;11.43;;
68250;SDS011;55066;51.560;4.642;2023-10-31T01:34:54;14.03;;;6.27;;
68250;SDS011;55066;51.560;4.642;2023-10-31T01:37:19;29.40;;;11.88;;
68250;SDS011;55066;51.560;4.642;2023-10-31T01:39:46;28.88;;;12.05;;
68250;SDS011;55066;51.560;4.642;2023-10-31T01:42:16;31.33;;;13.50;;
68250;SDS011;55066;51.560;4.642;2023-10-31T01:44:42;32.38;;;13.40;;
68250;SDS011;55066;51.560;4.642;2023-10-31T01:47:08;29.02;;;12.00;;
68250;SDS011;55066;51.560;4.642;2023-10-31T01:49:34;35.65;;;14.15;;
68250;SDS011;55066;51.560;4.642;2023-10-31T01:52:01;30.60;;;12.40;;
68250;SDS011;55066;51.560;4.642;2023-10-31T01:54:29;30.90;;;13.20;;
68250;SDS011;55066;51.560;4.642;2023-10-31T01:56:57;32.10;;;11.65;;
68250;SDS011;55066;51.560;4.642;2023-10-31T01:59:24;28.75;;;12.13;;
68250;SDS011;55066;51.560;4.642;2023-10-31T02:01:50;34.03;;;14.38;;
68250;SDS011;55066;51.560;4.642;2023-10-31T02:04:15;30.42;;;12.45;;
68250;SDS011;55066;51.560;4.642;2023-10-31T02:06:41;35.23;;;15.10;;
68250;SDS011;55066;51.560;4.642;2023-10-31T02:09:06;36.53;;;15.00;;
68250;SDS011;55066;51.560;4.642;2023-10-31T02:11:32;34.78;;;13.82;;
68250;SDS011;55066;51.560;4.642;2023-10-31T02:13:59;31.73;;;14.00;;
68250;SDS011;55066;51.560;4.642;2023-10-31T02:16:24;31.70;;;13.98;;
68250;SDS011;55066;51.560;4.642;2023-10-31T02:18:50;32.25;;;13.48;;
68250;SDS011;55066;51.560;4.642;2023-10-31T02:21:17;24.67;;;11.50;;
68250;SDS011;55066;51.560;4.642;2023-10-31T02:23:54;30.92;;;13.73;;
68250;SDS011;55066;51.560;4.642;2023-10-31T02:26:27;27.90;;;12.40;;
68250;SDS011;55066;51.560;4.642;2023-10-31T02:28:56;30.35;;;12.05;;
68250;SDS011;55066;51.560;4.642;2023-10-31T02:31:23;28.83;;;13.20;;
68250;SDS011;55066;51.560;4.642;2023-10-31T02:33:49;30.98;;;12.88;;
68250;SDS011;55066;51.560;4.642;2023-10-31T02:36:14;28.57;;;12.10;;
68250;SDS011;55066;51.560;4.642;2023-10-31T02:38:40;25.58;;;11.50;;
68250;SDS011;55066;51.560;4.642;2023-10-31T02:41:05;27.83;;;12.00;;
68250;SDS011;55066;51.560;4.642;2023-10-31T02:43:31;26.93;;;12.13;;
68250;SDS011;55066;51.560;4.642;2023-10-31T02:45:56;28.13;;;11.23;;
68250;SDS011;55066;51.560;4.642;2023-10-31T02:48:22;26.38;;;11.32;;
68250;SDS011;55066;51.560;4.642;2023-10-31T02:50:48;24.25;;;11.13;;
68250;SDS011;55066;51.560;4.642;2023-10-31T02:53:14;23.87;;;11.07;;
68250;SDS011;55066;51.560;4.642;2023-10-31T02:55:39;24.67;;;11.10;;
68250;SDS011;55066;51.560;4.642;2023-10-31T02:58:05;25.80;;;10.93;;
68250;SDS011;55066;51.560;4.642;2023-10-31T03:00:31;23.88;;;11.23;;
68250;SDS011;55066;51.560;4.642;2023-10-31T03:02:56;24.00;;;10.83;;
68250;SDS011;55066;51.560;4.642;2023-10-31T03:05:22;24.30;;;10.93;;
68250;SDS011;55066;51.560;4.642;2023-10-31T03:07:48;25.02;;;11.07;;
68250;SDS011;55066;51.560;4.642;2023-10-31T03:10:14;23.20;;;10.60;;
68250;SDS011;55066;51.560;4.642;2023-10-31T03:12:40;22.47;;;10.47;;
68250;SDS011;55066;51.560;4.642;2023-10-31T03:15:06;25.10;;;10.95;;
68250;SDS011;55066;51.560;4.642;2023-10-31T03:17:32;24.55;;;10.40;;
68250;SDS011;55066;51.560;4.642;2023-10-31T03:19:57;22.37;;;10.23;;
68250;SDS011;55066;51.560;4.642;2023-10-31T03:22:23;22.40;;;10.03;;
68250;SDS011;55066;51.560;4.642;2023-10-31T03:24:49;22.33;;;10.20;;
68250;SDS011;55066;51.560;4.642;2023-10-31T03:27:14;22.47;;;9.53;;
68250;SDS011;55066;51.560;4.642;2023-10-31T03:29:39;18.70;;;8.97;;
68250;SDS011;55066;51.560;4.642;2023-10-31T03:32:06;19.98;;;9.10;;
68250;SDS011;55066;51.560;4.642;2023-10-31T03:34:31;19.23;;;8.30;;
68250;SDS011;55066;51.560;4.642;2023-10-31T03:36:57;21.40;;;8.73;;
68250;SDS011;55066;51.560;4.642;2023-10-31T03:39:23;18.85;;;8.73;;
68250;SDS011;55066;51.560;4.642;2023-10-31T03:41:49;22.27;;;9.07;;
68250;SDS011;55066;51.560;4.642;2023-10-31T03:44:14;17.77;;;7.83;;
68250;SDS011;55066;51.560;4.642;2023-10-31T03:46:40;19.40;;;8.37;;
68250;SDS011;55066;51.560;4.642;2023-10-31T03:49:05;19.67;;;8.10;;
68250;SDS011;55066;51.560;4.642;2023-10-31T03:51:32;21.05;;;8.07;;
68250;SDS011;55066;51.560;4.642;2023-10-31T03:53:59;17.77;;;7.65;;
68250;SDS011;55066;51.560;4.642;2023-10-31T03:56:24;16.27;;;7.63;;
68250;SDS011;55066;51.560;4.642;2023-10-31T03:58:50;17.87;;;7.10;;
68250;SDS011;55066;51.560;4.642;2023-10-31T04:01:16;15.50;;;7.43;;
68250;SDS011;55066;51.560;4.642;2023-10-31T04:03:41;18.97;;;8.23;;
68250;SDS011;55066;51.560;4.642;2023-10-31T04:06:07;18.05;;;8.23;;
68250;SDS011;55066;51.560;4.642;2023-10-31T04:08:33;18.17;;;7.87;;
68250;SDS011;55066;51.560;4.642;2023-10-31T04:10:58;15.32;;;6.97;;
68250;SDS011;55066;51.560;4.642;2023-10-31T04:13:24;16.30;;;6.33;;
68250;SDS011;55066;51.560;4.642;2023-10-31T04:15:50;15.30;;;7.20;;
68250;SDS011;55066;51.560;4.642;2023-10-31T04:18:17;14.18;;;6.75;;
68250;SDS011;55066;51.560;4.642;2023-10-31T04:20:43;14.60;;;6.25;;
68250;SDS011;55066;51.560;4.642;2023-10-31T04:23:08;12.75;;;6.13;;
68250;SDS011;55066;51.560;4.642;2023-10-31T04:25:35;14.07;;;5.80;;
68250;SDS011;55066;51.560;4.642;2023-10-31T04:28:00;10.43;;;4.80;;
68250;SDS011;55066;51.560;4.642;2023-10-31T04:30:26;11.27;;;5.00;;
68250;SDS011;55066;51.560;4.642;2023-10-31T04:32:54;10.20;;;4.28;;
68250;SDS011;55066;51.560;4.642;2023-10-31T04:35:20;8.57;;;3.87;;
68250;SDS011;55066;51.560;4.642;2023-10-31T04:37:45;9.00;;;4.00;;
68250;SDS011;55066;51.560;4.642;2023-10-31T04:40:11;7.53;;;3.60;;
68250;SDS011;55066;51.560;4.642;2023-10-31T04:42:38;9.48;;;3.78;;
68250;SDS011;55066;51.560;4.642;2023-10-31T04:45:05;8.68;;;3.95;;
68250;SDS011;55066;51.560;4.642;2023-10-31T04:47:31;11.20;;;4.10;;
68250;SDS011;55066;51.560;4.642;2023-10-31T04:49:58;9.83;;;4.67;;
68250;SDS011;55066;51.560;4.642;2023-10-31T04:52:25;10.00;;;4.93;;
68250;SDS011;55066;51.560;4.642;2023-10-31T04:54:51;10.60;;;4.97;;
68250;SDS011;55066;51.560;4.642;2023-10-31T04:57:17;10.68;;;4.90;;
68250;SDS011;55066;51.560;4.642;2023-10-31T04:59:43;10.07;;;4.88;;
68250;SDS011;55066;51.560;4.642;2023-10-31T05:02:08;10.17;;;5.17;;
68250;SDS011;55066;51.560;4.642;2023-10-31T05:04:37;14.27;;;5.53;;
68250;SDS011;55066;51.560;4.642;2023-10-31T05:07:03;14.63;;;6.30;;
68250;SDS011;55066;51.560;4.642;2023-10-31T05:09:28;14.17;;;5.83;;
68250;SDS011;55066;51.560;4.642;2023-10-31T05:11:54;14.45;;;6.13;;
68250;SDS011;55066;51.560;4.642;2023-10-31T05:14:20;15.23;;;6.37;;
68250;SDS011;55066;51.560;4.642;2023-10-31T05:16:45;15.13;;;6.23;;
68250;SDS011;55066;51.560;4.642;2023-10-31T05:19:11;12.48;;;6.00;;
68250;SDS011;55066;51.560;4.642;2023-10-31T05:21:36;13.70;;;5.70;;
68250;SDS011;55066;51.560;4.642;2023-10-31T05:24:02;14.30;;;5.57;;
68250;SDS011;55066;51.560;4.642;2023-10-31T05:26:27;13.55;;;5.15;;
68250;SDS011;55066;51.560;4.642;2023-10-31T05:28:54;15.67;;;5.53;;
68250;SDS011;55066;51.560;4.642;2023-10-31T05:31:21;13.18;;;4.93;;
68250;SDS011;55066;51.560;4.642;2023-10-31T05:33:48;10.30;;;5.13;;
68250;SDS011;55066;51.560;4.642;2023-10-31T05:36:17;14.60;;;6.03;;
68250;SDS011;55066;51.560;4.642;2023-10-31T05:38:53;10.90;;;5.55;;
68250;SDS011;55066;51.560;4.642;2023-10-31T05:41:18;12.27;;;5.53;;
68250;SDS011;55066;51.560;4.642;2023-10-31T05:43:44;14.30;;;5.95;;
68250;SDS011;55066;51.560;4.642;2023-10-31T05:46:09;13.47;;;6.20;;
68250;SDS011;55066;51.560;4.642;2023-10-31T05:48:39;12.63;;;5.80;;
68250;SDS011;55066;51.560;4.642;2023-10-31T05:51:12;12.85;;;5.53;;
68250;SDS011;55066;51.560;4.642;2023-10-31T05:53:39;12.20;;;5.90;;
68250;SDS011;55066;51.560;4.642;2023-10-31T05:56:05;12.55;;;4.95;;
68250;SDS011;55066;51.560;4.642;2023-10-31T05:58:32;12.32;;;5.55;;
68250;SDS011;55066;51.560;4.642;2023-10-31T06:00:58;14.63;;;5.82;;
68250;SDS011;55066;51.560;4.642;2023-10-31T06:03:23;13.00;;;5.70;;
68250;SDS011;55066;51.560;4.642;2023-10-31T06:05:49;11.00;;;5.63;;
68250;SDS011;55066;51.560;4.642;2023-10-31T06:08:14;12.90;;;6.07;;
68250;SDS011;55066;51.560;4.642;2023-10-31T06:10:40;12.68;;;6.30;;
68250;SDS011;55066;51.560;4.642;2023-10-31T06:13:05;11.32;;;5.28;;
68250;SDS011;55066;51.560;4.642;2023-10-31T06:15:30;13.17;;;5.87;;
68250;SDS011;55066;51.560;4.642;2023-10-31T06:17:56;11.10;;;5.30;;
68250;SDS011;55066;51.560;4.642;2023-10-31T06:20:21;12.17;;;5.90;;
68250;SDS011;55066;51.560;4.642;2023-10-31T06:22:47;11.23;;;6.03;;
68250;SDS011;55066;51.560;4.642;2023-10-31T06:25:12;11.67;;;6.37;;
68250;SDS011;55066;51.560;4.642;2023-10-31T06:27:38;13.70;;;6.67;;
68250;SDS011;55066;51.560;4.642;2023-10-31T06:30:03;14.20;;;6.63;;
68250;SDS011;55066;51.560;4.642;2023-10-31T06:32:29;16.17;;;7.72;;
68250;SDS011;55066;51.560;4.642;2023-10-31T06:34:56;15.85;;;7.30;;
68250;SDS011;55066;51.560;4.642;2023-10-31T06:37:21;15.90;;;7.70;;
68250;SDS011;55066;51.560;4.642;2023-10-31T06:39:47;16.60;;;7.47;;
68250;SDS011;55066;51.560;4.642;2023-10-31T06:42:12;17.23;;;8.17;;
68250;SDS011;55066;51.560;4.642;2023-10-31T06:44:38;20.53;;;8.37;;
68250;SDS011;55066;51.560;4.642;2023-10-31T06:47:03;16.52;;;8.18;;
68250;SDS011;55066;51.560;4.642;2023-10-31T06:49:29;16.83;;;7.53;;
68250;SDS011;55066;51.560;4.642;2023-10-31T06:51:54;18.60;;;8.17;;
68250;SDS011;55066;51.560;4.642;2023-10-31T06:54:20;19.47;;;8.80;;
68250;SDS011;55066;51.560;4.642;2023-10-31T06:56:46;21.38;;;8.70;;
68250;SDS011;55066;51.560;4.642;2023-10-31T06:59:11;16.50;;;8.23;;
68250;SDS011;55066;51.560;4.642;2023-10-31T07:01:37;18.13;;;8.30;;
68250;SDS011;55066;51.560;4.642;2023-10-31T07:04:03;19.47;;;8.17;;
68250;SDS011;55066;51.560;4.642;2023-10-31T07:06:28;16.88;;;7.93;;
68250;SDS011;55066;51.560;4.642;2023-10-31T07:08:54;17.93;;;8.03;;
68250;SDS011;55066;51.560;4.642;2023-10-31T07:11:19;18.40;;;8.27;;
68250;SDS011;55066;51.560;4.642;2023-10-31T07:13:45;17.40;;;8.40;;
68250;SDS011;55066;51.560;4.642;2023-10-31T07:16:10;15.73;;;7.50;;
68250;SDS011;55066;51.560;4.642;2023-10-31T07:18:36;16.70;;;7.37;;
68250;SDS011;55066;51.560;4.642;2023-10-31T07:21:01;18.37;;;7.03;;
68250;SDS011;55066;51.560;4.642;2023-10-31T07:23:27;14.10;;;6.20;;
68250;SDS011;55066;51.560;4.642;2023-10-31T07:25:52;13.20;;;6.00;;
68250;SDS011;55066;51.560;4.642;2023-10-31T07:28:17;14.70;;;5.47;;
68250;SDS011;55066;51.560;4.642;2023-10-31T07:30:43;11.80;;;5.32;;
68250;SDS011;55066;51.560;4.642;2023-10-31T07:33:09;15.70;;;7.07;;
68250;SDS011;55066;51.560;4.642;2023-10-31T07:35:34;15.63;;;6.30;;
68250;SDS011;55066;51.560;4.642;2023-10-31T07:38:00;16.17;;;6.13;;
68250;SDS011;55066;51.560;4.642;2023-10-31T07:40:25;20.17;;;8.97;;
68250;SDS011;55066;51.560;4.642;2023-10-31T07:42:51;12.30;;;6.00;;
68250;SDS011;55066;51.560;4.642;2023-10-31T07:45:16;11.60;;;6.03;;
68250;SDS011;55066;51.560;4.642;2023-10-31T07:47:42;15.43;;;6.53;;
68250;SDS011;55066;51.560;4.642;2023-10-31T07:50:07;13.85;;;6.78;;
68250;SDS011;55066;51.560;4.642;2023-10-31T07:52:33;15.43;;;6.70;;
68250;SDS011;55066;51.560;4.642;2023-10-31T07:54:58;13.20;;;6.55;;
68250;SDS011;55066;51.560;4.642;2023-10-31T07:57:24;16.60;;;6.67;;
68250;SDS011;55066;51.560;4.642;2023-10-31T07:59:49;16.93;;;7.00;;
68250;SDS011;55066;51.560;4.642;2023-10-31T08:02:15;15.77;;;6.43;;
68250;SDS011;55066;51.560;4.642;2023-10-31T08:04:40;17.10;;;7.25;;
68250;SDS011;55066;51.560;4.642;2023-10-31T08:07:06;15.90;;;7.50;;
68250;SDS011;55066;51.560;4.642;2023-10-31T08:09:31;26.57;;;11.67;;
68250;SDS011;55066;51.560;4.642;2023-10-31T08:11:57;21.87;;;10.33;;
68250;SDS011;55066;51.560;4.642;2023-10-31T08:14:22;20.20;;;9.30;;
68250;SDS011;55066;51.560;4.642;2023-10-31T08:16:47;19.07;;;8.30;;
68250;SDS011;55066;51.560;4.642;2023-10-31T08:19:13;25.90;;;9.10;;
68250;SDS011;55066;51.560;4.642;2023-10-31T08:21:39;23.38;;;9.15;;
68250;SDS011;55066;51.560;4.642;2023-10-31T08:24:06;24.25;;;9.07;;
68250;SDS011;55066;51.560;4.642;2023-10-31T08:26:32;26.47;;;11.67;;
68250;SDS011;55066;51.560;4.642;2023-10-31T08:28:59;33.60;;;11.90;;
68250;SDS011;55066;51.560;4.642;2023-10-31T08:31:26;31.27;;;12.57;;
68250;SDS011;55066;51.560;4.642;2023-10-31T08:33:51;32.97;;;12.43;;
68250;SDS011;55066;51.560;4.642;2023-10-31T08:36:18;34.47;;;14.00;;
68250;SDS011;55066;51.560;4.642;2023-10-31T08:38:45;36.92;;;13.75;;
68250;SDS011;55066;51.560;4.642;2023-10-31T08:41:10;32.77;;;12.97;;
68250;SDS011;55066;51.560;4.642;2023-10-31T08:43:36;35.97;;;12.90;;
68250;SDS011;55066;51.560;4.642;2023-10-31T08:46:01;36.95;;;12.50;;
68250;SDS011;55066;51.560;4.642;2023-10-31T08:48:27;39.80;;;14.95;;
68250;SDS011;55066;51.560;4.642;2023-10-31T08:50:52;41.13;;;14.80;;
68250;SDS011;55066;51.560;4.642;2023-10-31T08:53:18;40.80;;;13.90;;
68250;SDS011;55066;51.560;4.642;2023-10-31T08:55:46;44.70;;;15.05;;
68250;SDS011;55066;51.560;4.642;2023-10-31T08:58:12;44.47;;;15.23;;
68250;SDS011;55066;51.560;4.642;2023-10-31T09:00:38;45.67;;;15.00;;
68250;SDS011;55066;51.560;4.642;2023-10-31T09:03:04;47.70;;;15.90;;
68250;SDS011;55066;51.560;4.642;2023-10-31T09:05:29;51.40;;;17.80;;
68250;SDS011;55066;51.560;4.642;2023-10-31T09:07:55;45.33;;;15.98;;
68250;SDS011;55066;51.560;4.642;2023-10-31T09:10:20;45.97;;;15.37;;
68250;SDS011;55066;51.560;4.642;2023-10-31T09:12:46;47.77;;;15.00;;
68250;SDS011;55066;51.560;4.642;2023-10-31T09:15:11;50.90;;;14.95;;
68250;SDS011;55066;51.560;4.642;2023-10-31T09:17:38;45.38;;;14.80;;
68250;SDS011;55066;51.560;4.642;2023-10-31T09:20:04;47.03;;;15.70;;
68250;SDS011;55066;51.560;4.642;2023-10-31T09:22:30;39.47;;;12.35;;
68250;SDS011;55066;51.560;4.642;2023-10-31T09:24:55;44.05;;;14.00;;
68250;SDS011;55066;51.560;4.642;2023-10-31T09:27:21;45.55;;;14.15;;
68250;SDS011;55066;51.560;4.642;2023-10-31T09:29:46;42.57;;;12.80;;
68250;SDS011;55066;51.560;4.642;2023-10-31T09:32:13;43.63;;;12.90;;
68250;SDS011;55066;51.560;4.642;2023-10-31T09:34:39;34.33;;;10.48;;
68250;SDS011;55066;51.560;4.642;2023-10-31T09:37:05;37.40;;;12.70;;
68250;SDS011;55066;51.560;4.642;2023-10-31T09:39:30;40.13;;;12.55;;
68250;SDS011;55066;51.560;4.642;2023-10-31T09:41:56;39.13;;;11.60;;
68250;SDS011;55066;51.560;4.642;2023-10-31T09:44:21;42.40;;;13.47;;
68250;SDS011;55066;51.560;4.642;2023-10-31T09:46:47;36.38;;;12.88;;
68250;SDS011;55066;51.560;4.642;2023-10-31T09:49:13;35.67;;;11.97;;
68250;SDS011;55066;51.560;4.642;2023-10-31T09:51:39;33.63;;;11.00;;
68250;SDS011;55066;51.560;4.642;2023-10-31T09:54:05;32.67;;;10.70;;
68250;SDS011;55066;51.560;4.642;2023-10-31T09:56:33;32.92;;;11.15;;
68250;SDS011;55066;51.560;4.642;2023-10-31T09:59:00;35.35;;;11.90;;
68250;SDS011;55066;51.560;4.642;2023-10-31T10:01:26;38.38;;;11.75;;
68250;SDS011;55066;51.560;4.642;2023-10-31T10:03:52;39.83;;;13.33;;
68250;SDS011;55066;51.560;4.642;2023-10-31T10:06:18;35.47;;;12.70;;
68250;SDS011;55066;51.560;4.642;2023-10-31T10:08:46;34.70;;;11.25;;
68250;SDS011;55066;51.560;4.642;2023-10-31T10:11:12;33.30;;;11.20;;
68250;SDS011;55066;51.560;4.642;2023-10-31T10:13:37;37.95;;;12.30;;
68250;SDS011;55066;51.560;4.642;2023-10-31T10:16:03;35.03;;;12.37;;
68250;SDS011;55066;51.560;4.642;2023-10-31T10:18:33;38.55;;;12.85;;
68250;SDS011;55066;51.560;4.642;2023-10-31T10:21:03;36.75;;;11.95;;
68250;SDS011;55066;51.560;4.642;2023-10-31T10:23:30;28.10;;;10.93;;
68250;SDS011;55066;51.560;4.642;2023-10-31T10:25:57;36.92;;;12.43;;
68250;SDS011;55066;51.560;4.642;2023-10-31T10:28:23;32.13;;;11.27;;
68250;SDS011;55066;51.560;4.642;2023-10-31T10:30:50;30.60;;;11.60;;
68250;SDS011;55066;51.560;4.642;2023-10-31T10:33:16;29.85;;;12.00;;
68250;SDS011;55066;51.560;4.642;2023-10-31T10:35:42;34.03;;;12.13;;
68250;SDS011;55066;51.560;4.642;2023-10-31T10:38:12;36.63;;;12.32;;
68250;SDS011;55066;51.560;4.642;2023-10-31T10:40:40;38.20;;;13.38;;
68250;SDS011;55066;51.560;4.642;2023-10-31T10:43:11;36.75;;;12.65;;
68250;SDS011;55066;51.560;4.642;2023-10-31T10:45:37;39.72;;;14.10;;
68250;SDS011;55066;51.560;4.642;2023-10-31T10:48:07;38.40;;;14.20;;
68250;SDS011;55066;51.560;4.642;2023-10-31T10:50:36;38.55;;;13.65;;
68250;SDS011;55066;51.560;4.642;2023-10-31T10:53:09;33.58;;;12.80;;
68250;SDS011;55066;51.560;4.642;2023-10-31T10:55:46;33.67;;;12.65;;
68250;SDS011;55066;51.560;4.642;2023-10-31T10:58:20;35.08;;;12.73;;
68250;SDS011;55066;51.560;4.642;2023-10-31T11:00:51;33.13;;;11.80;;
68250;SDS011;55066;51.560;4.642;2023-10-31T11:03:17;29.50;;;11.88;;
68250;SDS011;55066;51.560;4.642;2023-10-31T11:05:45;34.00;;;11.10;;
68250;SDS011;55066;51.560;4.642;2023-10-31T11:08:11;28.35;;;10.65;;
68250;SDS011;55066;51.560;4.642;2023-10-31T11:10:36;25.75;;;10.45;;
68250;SDS011;55066;51.560;4.642;2023-10-31T11:13:03;22.35;;;9.98;;
68250;SDS011;55066;51.560;4.642;2023-10-31T11:15:28;28.07;;;10.77;;
68250;SDS011;55066;51.560;4.642;2023-10-31T11:17:55;33.60;;;12.30;;
68250;SDS011;55066;51.560;4.642;2023-10-31T11:20:21;37.70;;;12.95;;
68250;SDS011;55066;51.560;4.642;2023-10-31T11:22:47;32.47;;;12.67;;
68250;SDS011;55066;51.560;4.642;2023-10-31T11:25:19;37.58;;;13.80;;
68250;SDS011;55066;51.560;4.642;2023-10-31T11:27:49;44.03;;;14.65;;
68250;SDS011;55066;51.560;4.642;2023-10-31T11:30:48;39.75;;;13.70;;
68250;SDS011;55066;51.560;4.642;2023-10-31T11:33:11;40.53;;;13.45;;
68250;SDS011;55066;51.560;4.642;2023-10-31T11:35:38;40.90;;;14.38;;
68250;SDS011;55066;51.560;4.642;2023-10-31T11:38:08;43.67;;;13.85;;
68250;SDS011;55066;51.560;4.642;2023-10-31T11:40:37;41.88;;;15.30;;
68250;SDS011;55066;51.560;4.642;2023-10-31T11:43:23;44.65;;;14.68;;
68250;SDS011;55066;51.560;4.642;2023-10-31T11:45:48;42.27;;;14.60;;
68250;SDS011;55066;51.560;4.642;2023-10-31T11:48:14;42.97;;;15.83;;
68250;SDS011;55066;51.560;4.642;2023-10-31T11:50:40;40.17;;;15.55;;
68250;SDS011;55066;51.560;4.642;2023-10-31T11:53:07;39.20;;;15.88;;
68250;SDS011;55066;51.560;4.642;2023-10-31T11:55:45;59.40;;;21.73;;
68250;SDS011;55066;51.560;4.642;2023-10-31T11:58:12;39.90;;;16.25;;
68250;SDS011;55066;51.560;4.642;2023-10-31T12:00:39;33.55;;;14.30;;
68250;SDS011;55066;51.560;4.642;2023-10-31T12:03:05;32.53;;;14.77;;
68250;SDS011;55066;51.560;4.642;2023-10-31T12:05:30;34.33;;;14.40;;
68250;SDS011;55066;51.560;4.642;2023-10-31T12:07:56;35.78;;;14.45;;
68250;SDS011;55066;51.560;4.642;2023-10-31T12:10:25;32.03;;;13.93;;
68250;SDS011;55066;51.560;4.642;2023-10-31T12:12:55;31.67;;;13.57;;
68250;SDS011;55066;51.560;4.642;2023-10-31T12:15:21;34.07;;;14.63;;
68250;SDS011;55066;51.560;4.642;2023-10-31T12:17:47;32.53;;;13.93;;
68250;SDS011;55066;51.560;4.642;2023-10-31T12:20:14;28.98;;;13.15;;
68250;SDS011;55066;51.560;4.642;2023-10-31T12:22:39;30.57;;;12.97;;
68250;SDS011;55066;51.560;4.642;2023-10-31T12:25:06;33.75;;;12.98;;
68250;SDS011;55066;51.560;4.642;2023-10-31T12:30:12;26.35;;;12.45;;
68250;SDS011;55066;51.560;4.642;2023-10-31T12:32:39;25.20;;;11.23;;
68250;SDS011;55066;51.560;4.642;2023-10-31T12:35:07;23.05;;;11.40;;
68250;SDS011;55066;51.560;4.642;2023-10-31T12:37:40;29.65;;;11.82;;
68250;SDS011;55066;51.560;4.642;2023-10-31T12:40:07;25.83;;;11.75;;
68250;SDS011;55066;51.560;4.642;2023-10-31T12:42:34;35.85;;;15.27;;
68250;SDS011;55066;51.560;4.642;2023-10-31T12:45:00;23.83;;;11.43;;
68250;SDS011;55066;51.560;4.642;2023-10-31T12:47:25;23.90;;;10.67;;
68250;SDS011;55066;51.560;4.642;2023-10-31T12:52:47;16.45;;;8.25;;
68250;SDS011;55066;51.560;4.642;2023-10-31T12:55:23;17.52;;;8.23;;
68250;SDS011;55066;51.560;4.642;2023-10-31T12:57:51;16.92;;;8.57;;
68250;SDS011;55066;51.560;4.642;2023-10-31T13:00:17;17.35;;;8.25;;
68250;SDS011;55066;51.560;4.642;2023-10-31T13:02:50;16.85;;;7.05;;
68250;SDS011;55066;51.560;4.642;2023-10-31T13:05:17;15.15;;;7.07;;
68250;SDS011;55066;51.560;4.642;2023-10-31T13:07:49;17.87;;;8.00;;
68250;SDS011;55066;51.560;4.642;2023-10-31T13:10:16;20.85;;;9.30;;
68250;SDS011;55066;51.560;4.642;2023-10-31T13:12:45;20.83;;;9.25;;
68250;SDS011;55066;51.560;4.642;2023-10-31T13:15:15;18.90;;;8.83;;
68250;SDS011;55066;51.560;4.642;2023-10-31T13:17:43;23.05;;;9.23;;
68250;SDS011;55066;51.560;4.642;2023-10-31T13:20:10;22.40;;;10.05;;
68250;SDS011;55066;51.560;4.642;2023-10-31T13:22:38;22.77;;;10.43;;
68250;SDS011;55066;51.560;4.642;2023-10-31T13:25:07;22.80;;;10.03;;
68250;SDS011;55066;51.560;4.642;2023-10-31T13:27:42;23.92;;;9.35;;
68250;SDS011;55066;51.560;4.642;2023-10-31T13:30:12;22.27;;;9.57;;
68250;SDS011;55066;51.560;4.642;2023-10-31T13:32:38;17.30;;;7.90;;
68250;SDS011;55066;51.560;4.642;2023-10-31T13:35:07;19.42;;;8.05;;
68250;SDS011;55066;51.560;4.642;2023-10-31T13:37:36;19.58;;;8.32;;
68250;SDS011;55066;51.560;4.642;2023-10-31T13:40:02;22.17;;;8.98;;
68250;SDS011;55066;51.560;4.642;2023-10-31T13:42:28;30.83;;;12.52;;
68250;SDS011;55066;51.560;4.642;2023-10-31T13:44:53;22.47;;;10.00;;
68250;SDS011;55066;51.560;4.642;2023-10-31T13:47:19;23.40;;;10.07;;
68250;SDS011;55066;51.560;4.642;2023-10-31T13:49:44;20.40;;;9.30;;
68250;SDS011;55066;51.560;4.642;2023-10-31T13:52:10;24.13;;;8.47;;
68250;SDS011;55066;51.560;4.642;2023-10-31T13:54:35;20.03;;;8.27;;
68250;SDS011;55066;51.560;4.642;2023-10-31T13:57:01;19.95;;;8.23;;
68250;SDS011;55066;51.560;4.642;2023-10-31T13:59:27;20.77;;;8.83;;
68250;SDS011;55066;51.560;4.642;2023-10-31T14:01:52;21.92;;;8.90;;
68250;SDS011;55066;51.560;4.642;2023-10-31T14:04:18;20.38;;;8.55;;
68250;SDS011;55066;51.560;4.642;2023-10-31T14:06:44;20.20;;;8.85;;
68250;SDS011;55066;51.560;4.642;2023-10-31T14:09:11;19.80;;;8.13;;
68250;SDS011;55066;51.560;4.642;2023-10-31T14:11:37;13.60;;;6.32;;
68250;SDS011;55066;51.560;4.642;2023-10-31T14:14:03;13.93;;;6.50;;
68250;SDS011;55066;51.560;4.642;2023-10-31T14:16:38;16.50;;;6.68;;
68250;SDS011;55066;51.560;4.642;2023-10-31T14:19:11;14.75;;;6.07;;
68250;SDS011;55066;51.560;4.642;2023-10-31T14:21:38;12.82;;;5.65;;
68250;SDS011;55066;51.560;4.642;2023-10-31T14:24:04;14.98;;;5.53;;
68250;SDS011;55066;51.560;4.642;2023-10-31T14:26:30;16.50;;;7.00;;
68250;SDS011;55066;51.560;4.642;2023-10-31T14:28:58;14.93;;;6.93;;